sensor_id;sensor_type;location;lat;lon;timestamp;P1;durP1;ratioP1;P2;durP2;ratioP2
17207;SDS011;8720;48.488;9.202;2023-05-14T00:00:48;8.43;;;7.73;;
17207;SDS011;8720;48.488;9.202;2023-05-14T00:03:16;7.73;;;7.03;;
17207;SDS011;8720;48.488;9.202;2023-05-14T00:05:43;7.70;;;7.00;;
17207;SDS011;8720;48.488;9.202;2023-05-14T00:08:10;8.60;;;7.80;;
17207;SDS011;8720;48.488;9.202;2023-05-14T00:10:39;9.37;;;8.47;;
17207;SDS011;8720;48.488;9.202;2023-05-14T00:13:06;8.10;;;7.00;;
17207;SDS011;8720;48.488;9.202;2023-05-14T00:15:33;7.87;;;7.07;;
17207;SDS011;8720;48.488;9.202;2023-05-14T00:18:00;8.43;;;7.63;;
17207;SDS011;8720;48.488;9.202;2023-05-14T00:20:28;8.17;;;7.40;;
17207;SDS011;8720;48.488;9.202;2023-05-14T00:22:55;7.77;;;7.07;;
17207;SDS011;8720;48.488;9.202;2023-05-14T00:25:23;8.03;;;7.33;;
17207;SDS011;8720;48.488;9.202;2023-05-14T00:27:51;8.63;;;7.47;;
17207;SDS011;8720;48.488;9.202;2023-05-14T00:30:19;7.43;;;6.83;;
17207;SDS011;8720;48.488;9.202;2023-05-14T00:32:46;8.40;;;7.50;;
17207;SDS011;8720;48.488;9.202;2023-05-14T00:35:13;8.30;;;7.50;;
17207;SDS011;8720;48.488;9.202;2023-05-14T00:37:41;7.93;;;7.13;;
17207;SDS011;8720;48.488;9.202;2023-05-14T00:40:08;8.43;;;7.63;;
17207;SDS011;8720;48.488;9.202;2023-05-14T00:42:37;8.20;;;7.40;;
17207;SDS011;8720;48.488;9.202;2023-05-14T00:45:07;8.00;;;7.30;;
17207;SDS011;8720;48.488;9.202;2023-05-14T00:47:35;7.97;;;7.17;;
17207;SDS011;8720;48.488;9.202;2023-05-14T00:50:04;8.10;;;7.30;;
17207;SDS011;8720;48.488;9.202;2023-05-14T00:52:33;8.23;;;7.53;;
17207;SDS011;8720;48.488;9.202;2023-05-14T00:55:03;9.60;;;8.10;;
17207;SDS011;8720;48.488;9.202;2023-05-14T00:57:33;7.73;;;7.03;;
17207;SDS011;8720;48.488;9.202;2023-05-14T01:00:01;8.47;;;7.70;;
17207;SDS011;8720;48.488;9.202;2023-05-14T01:02:32;8.10;;;7.30;;
17207;SDS011;8720;48.488;9.202;2023-05-14T01:04:59;8.60;;;7.80;;
17207;SDS011;8720;48.488;9.202;2023-05-14T01:07:29;9.90;;;9.00;;
17207;SDS011;8720;48.488;9.202;2023-05-14T01:10:10;8.90;;;8.10;;
17207;SDS011;8720;48.488;9.202;2023-05-14T01:12:46;9.13;;;8.20;;
17207;SDS011;8720;48.488;9.202;2023-05-14T01:15:27;8.63;;;7.73;;
17207;SDS011;8720;48.488;9.202;2023-05-14T01:17:58;8.90;;;8.10;;
17207;SDS011;8720;48.488;9.202;2023-05-14T01:20:29;8.63;;;7.83;;
17207;SDS011;8720;48.488;9.202;2023-05-14T01:22:58;7.80;;;7.17;;
17207;SDS011;8720;48.488;9.202;2023-05-14T01:25:25;8.70;;;7.90;;
17207;SDS011;8720;48.488;9.202;2023-05-14T01:27:55;7.60;;;7.00;;
17207;SDS011;8720;48.488;9.202;2023-05-14T01:30:31;7.93;;;7.23;;
17207;SDS011;8720;48.488;9.202;2023-05-14T01:33:02;8.53;;;7.83;;
17207;SDS011;8720;48.488;9.202;2023-05-14T01:35:35;8.17;;;7.40;;
17207;SDS011;8720;48.488;9.202;2023-05-14T01:38:05;8.73;;;7.90;;
17207;SDS011;8720;48.488;9.202;2023-05-14T01:40:36;8.07;;;7.27;;
17207;SDS011;8720;48.488;9.202;2023-05-14T01:43:05;7.70;;;7.00;;
17207;SDS011;8720;48.488;9.202;2023-05-14T01:45:34;7.90;;;7.20;;
17207;SDS011;8720;48.488;9.202;2023-05-14T01:48:02;15.70;;;9.30;;
17207;SDS011;8720;48.488;9.202;2023-05-14T01:50:30;8.03;;;7.33;;
17207;SDS011;8720;48.488;9.202;2023-05-14T01:52:57;8.50;;;7.80;;
17207;SDS011;8720;48.488;9.202;2023-05-14T01:55:27;8.47;;;7.77;;
17207;SDS011;8720;48.488;9.202;2023-05-14T01:57:54;7.77;;;6.97;;
17207;SDS011;8720;48.488;9.202;2023-05-14T02:02:57;8.37;;;7.47;;
17207;SDS011;8720;48.488;9.202;2023-05-14T02:05:24;8.73;;;7.40;;
17207;SDS011;8720;48.488;9.202;2023-05-14T02:07:52;8.47;;;7.70;;
17207;SDS011;8720;48.488;9.202;2023-05-14T02:10:20;9.77;;;8.77;;
17207;SDS011;8720;48.488;9.202;2023-05-14T02:12:52;8.83;;;7.97;;
17207;SDS011;8720;48.488;9.202;2023-05-14T02:15:20;10.03;;;9.03;;
17207;SDS011;8720;48.488;9.202;2023-05-14T02:17:47;9.17;;;8.37;;
17207;SDS011;8720;48.488;9.202;2023-05-14T02:20:14;9.13;;;8.23;;
17207;SDS011;8720;48.488;9.202;2023-05-14T02:22:42;9.50;;;8.53;;
17207;SDS011;8720;48.488;9.202;2023-05-14T02:25:10;9.90;;;9.00;;
17207;SDS011;8720;48.488;9.202;2023-05-14T02:27:38;10.40;;;9.40;;
17207;SDS011;8720;48.488;9.202;2023-05-14T02:30:07;11.03;;;9.97;;
17207;SDS011;8720;48.488;9.202;2023-05-14T02:32:37;9.10;;;8.33;;
17207;SDS011;8720;48.488;9.202;2023-05-14T02:35:05;14.20;;;12.23;;
17207;SDS011;8720;48.488;9.202;2023-05-14T02:37:33;15.90;;;13.07;;
17207;SDS011;8720;48.488;9.202;2023-05-14T02:40:00;11.40;;;10.30;;
17207;SDS011;8720;48.488;9.202;2023-05-14T02:42:28;12.43;;;10.60;;
17207;SDS011;8720;48.488;9.202;2023-05-14T02:44:55;13.20;;;10.33;;
17207;SDS011;8720;48.488;9.202;2023-05-14T02:47:24;12.10;;;10.57;;
17207;SDS011;8720;48.488;9.202;2023-05-14T02:49:51;10.53;;;9.53;;
17207;SDS011;8720;48.488;9.202;2023-05-14T02:52:18;10.90;;;9.80;;
17207;SDS011;8720;48.488;9.202;2023-05-14T02:54:46;10.73;;;9.73;;
17207;SDS011;8720;48.488;9.202;2023-05-14T02:57:13;11.20;;;10.10;;
17207;SDS011;8720;48.488;9.202;2023-05-14T02:59:40;10.50;;;9.60;;
17207;SDS011;8720;48.488;9.202;2023-05-14T03:02:07;10.87;;;9.77;;
17207;SDS011;8720;48.488;9.202;2023-05-14T03:04:38;10.47;;;9.47;;
17207;SDS011;8720;48.488;9.202;2023-05-14T03:07:06;10.40;;;9.50;;
17207;SDS011;8720;48.488;9.202;2023-05-14T03:09:33;10.47;;;9.40;;
17207;SDS011;8720;48.488;9.202;2023-05-14T03:12:00;10.80;;;9.70;;
17207;SDS011;8720;48.488;9.202;2023-05-14T03:14:28;10.87;;;9.87;;
17207;SDS011;8720;48.488;9.202;2023-05-14T03:16:55;11.33;;;10.23;;
17207;SDS011;8720;48.488;9.202;2023-05-14T03:19:22;10.60;;;9.50;;
17207;SDS011;8720;48.488;9.202;2023-05-14T03:21:51;10.93;;;9.93;;
17207;SDS011;8720;48.488;9.202;2023-05-14T03:24:18;11.10;;;10.00;;
17207;SDS011;8720;48.488;9.202;2023-05-14T03:26:45;11.63;;;10.53;;
17207;SDS011;8720;48.488;9.202;2023-05-14T03:29:13;10.80;;;9.80;;
17207;SDS011;8720;48.488;9.202;2023-05-14T03:31:42;11.17;;;10.17;;
17207;SDS011;8720;48.488;9.202;2023-05-14T03:34:09;11.67;;;10.57;;
17207;SDS011;8720;48.488;9.202;2023-05-14T03:36:37;11.50;;;10.50;;
17207;SDS011;8720;48.488;9.202;2023-05-14T03:39:05;11.90;;;10.90;;
17207;SDS011;8720;48.488;9.202;2023-05-14T03:41:34;12.93;;;9.63;;
17207;SDS011;8720;48.488;9.202;2023-05-14T03:44:01;10.27;;;9.27;;
17207;SDS011;8720;48.488;9.202;2023-05-14T03:46:30;10.63;;;9.70;;
17207;SDS011;8720;48.488;9.202;2023-05-14T03:48:58;10.77;;;9.30;;
17207;SDS011;8720;48.488;9.202;2023-05-14T03:51:25;10.87;;;9.73;;
17207;SDS011;8720;48.488;9.202;2023-05-14T03:53:52;10.67;;;9.77;;
17207;SDS011;8720;48.488;9.202;2023-05-14T03:56:21;10.73;;;9.70;;
17207;SDS011;8720;48.488;9.202;2023-05-14T03:58:48;10.27;;;9.27;;
17207;SDS011;8720;48.488;9.202;2023-05-14T04:01:16;10.13;;;9.13;;
17207;SDS011;8720;48.488;9.202;2023-05-14T04:03:43;10.70;;;9.70;;
17207;SDS011;8720;48.488;9.202;2023-05-14T04:06:11;11.00;;;9.90;;
17207;SDS011;8720;48.488;9.202;2023-05-14T04:08:42;11.20;;;8.63;;
17207;SDS011;8720;48.488;9.202;2023-05-14T04:11:09;9.57;;;8.73;;
17207;SDS011;8720;48.488;9.202;2023-05-14T04:13:38;10.30;;;9.30;;
17207;SDS011;8720;48.488;9.202;2023-05-14T04:16:05;11.70;;;10.50;;
17207;SDS011;8720;48.488;9.202;2023-05-14T04:18:33;10.93;;;9.77;;
17207;SDS011;8720;48.488;9.202;2023-05-14T04:21:00;9.83;;;9.10;;
17207;SDS011;8720;48.488;9.202;2023-05-14T04:23:28;11.40;;;10.33;;
17207;SDS011;8720;48.488;9.202;2023-05-14T04:25:56;11.27;;;10.17;;
17207;SDS011;8720;48.488;9.202;2023-05-14T04:28:23;11.77;;;10.10;;
17207;SDS011;8720;48.488;9.202;2023-05-14T04:30:52;11.50;;;10.30;;
17207;SDS011;8720;48.488;9.202;2023-05-14T04:33:19;10.20;;;9.27;;
17207;SDS011;8720;48.488;9.202;2023-05-14T04:35:46;10.87;;;9.80;;
17207;SDS011;8720;48.488;9.202;2023-05-14T04:38:14;11.13;;;9.53;;
17207;SDS011;8720;48.488;9.202;2023-05-14T04:40:41;10.13;;;9.13;;
17207;SDS011;8720;48.488;9.202;2023-05-14T04:43:08;11.30;;;10.30;;
17207;SDS011;8720;48.488;9.202;2023-05-14T04:45:36;11.90;;;10.70;;
17207;SDS011;8720;48.488;9.202;2023-05-14T04:48:06;11.57;;;10.47;;
17207;SDS011;8720;48.488;9.202;2023-05-14T04:50:33;11.90;;;10.80;;
17207;SDS011;8720;48.488;9.202;2023-05-14T04:53:01;11.40;;;10.30;;
17207;SDS011;8720;48.488;9.202;2023-05-14T04:55:28;11.27;;;10.17;;
17207;SDS011;8720;48.488;9.202;2023-05-14T04:57:55;11.60;;;10.57;;
17207;SDS011;8720;48.488;9.202;2023-05-14T05:00:23;12.30;;;11.00;;
17207;SDS011;8720;48.488;9.202;2023-05-14T05:02:50;10.20;;;9.20;;
17207;SDS011;8720;48.488;9.202;2023-05-14T05:05:19;12.50;;;11.30;;
17207;SDS011;8720;48.488;9.202;2023-05-14T05:07:46;11.30;;;10.13;;
17207;SDS011;8720;48.488;9.202;2023-05-14T05:10:13;10.73;;;9.73;;
17207;SDS011;8720;48.488;9.202;2023-05-14T05:12:41;12.33;;;11.13;;
17207;SDS011;8720;48.488;9.202;2023-05-14T05:15:08;12.10;;;10.90;;
17207;SDS011;8720;48.488;9.202;2023-05-14T05:17:35;12.13;;;11.10;;
17207;SDS011;8720;48.488;9.202;2023-05-14T05:20:03;11.10;;;10.00;;
17207;SDS011;8720;48.488;9.202;2023-05-14T05:22:35;11.83;;;10.63;;
17207;SDS011;8720;48.488;9.202;2023-05-14T05:25:02;12.53;;;11.23;;
17207;SDS011;8720;48.488;9.202;2023-05-14T05:27:32;11.13;;;10.13;;
17207;SDS011;8720;48.488;9.202;2023-05-14T05:29:59;11.50;;;10.40;;
17207;SDS011;8720;48.488;9.202;2023-05-14T05:32:28;10.40;;;9.40;;
17207;SDS011;8720;48.488;9.202;2023-05-14T05:34:55;12.33;;;11.13;;
17207;SDS011;8720;48.488;9.202;2023-05-14T05:37:23;12.17;;;10.90;;
17207;SDS011;8720;48.488;9.202;2023-05-14T05:39:51;11.70;;;9.93;;
17207;SDS011;8720;48.488;9.202;2023-05-14T05:42:18;12.83;;;11.50;;
17207;SDS011;8720;48.488;9.202;2023-05-14T05:44:46;12.93;;;11.50;;
17207;SDS011;8720;48.488;9.202;2023-05-14T05:47:13;11.27;;;10.17;;
17207;SDS011;8720;48.488;9.202;2023-05-14T05:49:41;11.57;;;10.53;;
17207;SDS011;8720;48.488;9.202;2023-05-14T05:52:08;11.40;;;10.40;;
17207;SDS011;8720;48.488;9.202;2023-05-14T05:54:36;11.60;;;10.50;;
17207;SDS011;8720;48.488;9.202;2023-05-14T05:57:05;10.67;;;9.67;;
17207;SDS011;8720;48.488;9.202;2023-05-14T05:59:32;11.53;;;10.33;;
17207;SDS011;8720;48.488;9.202;2023-05-14T06:02:00;11.60;;;10.40;;
17207;SDS011;8720;48.488;9.202;2023-05-14T06:04:27;12.37;;;11.17;;
17207;SDS011;8720;48.488;9.202;2023-05-14T06:06:54;11.53;;;10.43;;
17207;SDS011;8720;48.488;9.202;2023-05-14T06:09:22;12.07;;;10.87;;
17207;SDS011;8720;48.488;9.202;2023-05-14T06:11:49;12.43;;;11.17;;
17207;SDS011;8720;48.488;9.202;2023-05-14T06:14:17;11.03;;;9.97;;
17207;SDS011;8720;48.488;9.202;2023-05-14T06:16:45;11.43;;;10.23;;
17207;SDS011;8720;48.488;9.202;2023-05-14T06:19:12;10.90;;;9.83;;
17207;SDS011;8720;48.488;9.202;2023-05-14T06:21:39;12.10;;;10.90;;
17207;SDS011;8720;48.488;9.202;2023-05-14T06:24:07;11.80;;;10.67;;
17207;SDS011;8720;48.488;9.202;2023-05-14T06:26:34;11.53;;;10.43;;
17207;SDS011;8720;48.488;9.202;2023-05-14T06:29:02;12.10;;;10.90;;
17207;SDS011;8720;48.488;9.202;2023-05-14T06:31:30;11.27;;;10.17;;
17207;SDS011;8720;48.488;9.202;2023-05-14T06:33:58;10.93;;;9.80;;
17207;SDS011;8720;48.488;9.202;2023-05-14T06:36:25;11.73;;;10.63;;
17207;SDS011;8720;48.488;9.202;2023-05-14T06:38:52;11.53;;;10.43;;
17207;SDS011;8720;48.488;9.202;2023-05-14T06:41:19;10.23;;;9.30;;
17207;SDS011;8720;48.488;9.202;2023-05-14T06:43:46;11.33;;;10.23;;
17207;SDS011;8720;48.488;9.202;2023-05-14T06:46:14;12.37;;;11.07;;
17207;SDS011;8720;48.488;9.202;2023-05-14T06:48:42;11.03;;;9.93;;
17207;SDS011;8720;48.488;9.202;2023-05-14T06:51:09;11.23;;;10.10;;
17207;SDS011;8720;48.488;9.202;2023-05-14T06:53:37;12.20;;;10.63;;
17207;SDS011;8720;48.488;9.202;2023-05-14T06:56:06;13.27;;;11.97;;
17207;SDS011;8720;48.488;9.202;2023-05-14T06:58:33;12.60;;;10.77;;
17207;SDS011;8720;48.488;9.202;2023-05-14T07:01:00;11.60;;;10.40;;
17207;SDS011;8720;48.488;9.202;2023-05-14T07:03:27;10.63;;;9.53;;
17207;SDS011;8720;48.488;9.202;2023-05-14T07:05:56;12.03;;;10.73;;
17207;SDS011;8720;48.488;9.202;2023-05-14T07:08:23;11.13;;;10.03;;
17207;SDS011;8720;48.488;9.202;2023-05-14T07:10:51;11.13;;;10.03;;
17207;SDS011;8720;48.488;9.202;2023-05-14T07:13:18;11.63;;;10.53;;
17207;SDS011;8720;48.488;9.202;2023-05-14T07:15:45;12.53;;;11.20;;
17207;SDS011;8720;48.488;9.202;2023-05-14T07:18:12;11.17;;;10.10;;
17207;SDS011;8720;48.488;9.202;2023-05-14T07:20:40;11.70;;;10.50;;
17207;SDS011;8720;48.488;9.202;2023-05-14T07:23:08;11.67;;;10.57;;
17207;SDS011;8720;48.488;9.202;2023-05-14T07:25:35;10.97;;;9.97;;
17207;SDS011;8720;48.488;9.202;2023-05-14T07:28:03;11.10;;;10.00;;
17207;SDS011;8720;48.488;9.202;2023-05-14T07:30:30;10.70;;;9.67;;
17207;SDS011;8720;48.488;9.202;2023-05-14T07:32:57;11.40;;;10.30;;
17207;SDS011;8720;48.488;9.202;2023-05-14T07:35:25;10.80;;;9.70;;
17207;SDS011;8720;48.488;9.202;2023-05-14T07:37:52;10.40;;;9.40;;
17207;SDS011;8720;48.488;9.202;2023-05-14T07:40:21;12.27;;;9.90;;
17207;SDS011;8720;48.488;9.202;2023-05-14T07:42:49;12.40;;;10.73;;
17207;SDS011;8720;48.488;9.202;2023-05-14T07:45:16;11.60;;;10.40;;
17207;SDS011;8720;48.488;9.202;2023-05-14T07:47:43;13.17;;;10.30;;
17207;SDS011;8720;48.488;9.202;2023-05-14T07:50:11;11.40;;;10.30;;
17207;SDS011;8720;48.488;9.202;2023-05-14T07:52:38;11.23;;;10.13;;
17207;SDS011;8720;48.488;9.202;2023-05-14T07:55:05;11.83;;;10.73;;
17207;SDS011;8720;48.488;9.202;2023-05-14T07:57:35;11.60;;;10.20;;
17207;SDS011;8720;48.488;9.202;2023-05-14T08:00:02;11.83;;;10.63;;
17207;SDS011;8720;48.488;9.202;2023-05-14T08:02:37;10.23;;;9.33;;
17207;SDS011;8720;48.488;9.202;2023-05-14T08:05:05;12.00;;;10.80;;
17207;SDS011;8720;48.488;9.202;2023-05-14T08:07:33;11.57;;;10.47;;
17207;SDS011;8720;48.488;9.202;2023-05-14T08:10:00;12.53;;;11.33;;
17207;SDS011;8720;48.488;9.202;2023-05-14T08:12:28;11.60;;;10.50;;
17207;SDS011;8720;48.488;9.202;2023-05-14T08:14:57;11.73;;;10.53;;
17207;SDS011;8720;48.488;9.202;2023-05-14T08:17:24;11.87;;;10.60;;
17207;SDS011;8720;48.488;9.202;2023-05-14T08:19:51;12.53;;;11.33;;
17207;SDS011;8720;48.488;9.202;2023-05-14T08:22:19;12.20;;;11.10;;
17207;SDS011;8720;48.488;9.202;2023-05-14T08:24:47;11.63;;;10.43;;
17207;SDS011;8720;48.488;9.202;2023-05-14T08:27:14;12.17;;;11.00;;
17207;SDS011;8720;48.488;9.202;2023-05-14T08:29:41;12.17;;;11.07;;
17207;SDS011;8720;48.488;9.202;2023-05-14T08:32:10;13.00;;;11.70;;
17207;SDS011;8720;48.488;9.202;2023-05-14T08:34:38;12.63;;;11.40;;
17207;SDS011;8720;48.488;9.202;2023-05-14T08:37:05;11.80;;;10.60;;
17207;SDS011;8720;48.488;9.202;2023-05-14T08:39:32;13.33;;;12.03;;
17207;SDS011;8720;48.488;9.202;2023-05-14T08:41:59;13.07;;;11.67;;
17207;SDS011;8720;48.488;9.202;2023-05-14T08:44:37;11.60;;;10.50;;
17207;SDS011;8720;48.488;9.202;2023-05-14T08:47:14;11.87;;;10.67;;
17207;SDS011;8720;48.488;9.202;2023-05-14T08:49:46;12.40;;;11.30;;
17207;SDS011;8720;48.488;9.202;2023-05-14T08:52:23;12.10;;;10.90;;
17207;SDS011;8720;48.488;9.202;2023-05-14T08:54:51;12.70;;;11.40;;
17207;SDS011;8720;48.488;9.202;2023-05-14T08:57:19;12.00;;;10.80;;
17207;SDS011;8720;48.488;9.202;2023-05-14T08:59:49;12.27;;;10.97;;
17207;SDS011;8720;48.488;9.202;2023-05-14T09:02:17;11.03;;;9.93;;
17207;SDS011;8720;48.488;9.202;2023-05-14T09:04:50;11.73;;;10.63;;
17207;SDS011;8720;48.488;9.202;2023-05-14T09:07:21;11.40;;;10.30;;
17207;SDS011;8720;48.488;9.202;2023-05-14T09:09:49;12.03;;;10.70;;
17207;SDS011;8720;48.488;9.202;2023-05-14T09:12:17;11.73;;;10.60;;
17207;SDS011;8720;48.488;9.202;2023-05-14T09:14:45;11.23;;;10.27;;
17207;SDS011;8720;48.488;9.202;2023-05-14T09:17:14;13.00;;;11.70;;
17207;SDS011;8720;48.488;9.202;2023-05-14T09:19:44;11.53;;;10.37;;
17207;SDS011;8720;48.488;9.202;2023-05-14T09:22:13;11.23;;;10.23;;
17207;SDS011;8720;48.488;9.202;2023-05-14T09:24:43;12.10;;;10.90;;
17207;SDS011;8720;48.488;9.202;2023-05-14T09:27:14;12.07;;;10.87;;
17207;SDS011;8720;48.488;9.202;2023-05-14T09:29:46;12.47;;;11.27;;
17207;SDS011;8720;48.488;9.202;2023-05-14T09:32:13;11.87;;;10.70;;
17207;SDS011;8720;48.488;9.202;2023-05-14T09:34:41;11.93;;;10.83;;
17207;SDS011;8720;48.488;9.202;2023-05-14T09:37:09;11.23;;;10.13;;
17207;SDS011;8720;48.488;9.202;2023-05-14T09:39:37;12.20;;;11.00;;
17207;SDS011;8720;48.488;9.202;2023-05-14T09:42:05;11.67;;;10.57;;
17207;SDS011;8720;48.488;9.202;2023-05-14T09:44:32;12.80;;;11.50;;
17207;SDS011;8720;48.488;9.202;2023-05-14T09:47:02;12.40;;;11.30;;
17207;SDS011;8720;48.488;9.202;2023-05-14T09:49:29;11.37;;;10.10;;
17207;SDS011;8720;48.488;9.202;2023-05-14T09:51:57;12.60;;;11.37;;
17207;SDS011;8720;48.488;9.202;2023-05-14T09:54:26;10.90;;;9.90;;
17207;SDS011;8720;48.488;9.202;2023-05-14T09:56:54;10.80;;;9.70;;
17207;SDS011;8720;48.488;9.202;2023-05-14T09:59:22;11.37;;;10.37;;
17207;SDS011;8720;48.488;9.202;2023-05-14T10:01:49;12.47;;;11.37;;
17207;SDS011;8720;48.488;9.202;2023-05-14T10:04:18;11.70;;;10.60;;
17207;SDS011;8720;48.488;9.202;2023-05-14T10:06:48;10.77;;;9.77;;
17207;SDS011;8720;48.488;9.202;2023-05-14T10:09:20;10.30;;;9.40;;
17207;SDS011;8720;48.488;9.202;2023-05-14T10:11:52;10.87;;;9.80;;
17207;SDS011;8720;48.488;9.202;2023-05-14T10:14:25;10.40;;;9.40;;
17207;SDS011;8720;48.488;9.202;2023-05-14T10:16:58;9.93;;;9.03;;
17207;SDS011;8720;48.488;9.202;2023-05-14T10:19:28;11.50;;;10.40;;
17207;SDS011;8720;48.488;9.202;2023-05-14T10:22:01;10.37;;;9.40;;
17207;SDS011;8720;48.488;9.202;2023-05-14T10:24:33;10.17;;;9.10;;
17207;SDS011;8720;48.488;9.202;2023-05-14T10:27:06;9.90;;;9.00;;
17207;SDS011;8720;48.488;9.202;2023-05-14T10:29:35;10.60;;;9.60;;
17207;SDS011;8720;48.488;9.202;2023-05-14T10:32:03;10.93;;;9.93;;
17207;SDS011;8720;48.488;9.202;2023-05-14T10:34:34;10.43;;;9.40;;
17207;SDS011;8720;48.488;9.202;2023-05-14T10:37:05;9.30;;;8.40;;
17207;SDS011;8720;48.488;9.202;2023-05-14T10:39:44;8.60;;;7.90;;
17207;SDS011;8720;48.488;9.202;2023-05-14T10:42:16;9.70;;;8.77;;
17207;SDS011;8720;48.488;9.202;2023-05-14T10:44:47;9.17;;;8.30;;
17207;SDS011;8720;48.488;9.202;2023-05-14T10:47:20;8.80;;;8.00;;
17207;SDS011;8720;48.488;9.202;2023-05-14T10:49:48;8.53;;;7.73;;
17207;SDS011;8720;48.488;9.202;2023-05-14T10:52:20;8.17;;;7.47;;
17207;SDS011;8720;48.488;9.202;2023-05-14T10:54:49;8.77;;;7.97;;
17207;SDS011;8720;48.488;9.202;2023-05-14T10:57:20;8.03;;;7.23;;
17207;SDS011;8720;48.488;9.202;2023-05-14T10:59:49;8.30;;;7.50;;
17207;SDS011;8720;48.488;9.202;2023-05-14T11:02:20;7.07;;;6.37;;
17207;SDS011;8720;48.488;9.202;2023-05-14T11:04:58;8.60;;;7.80;;
17207;SDS011;8720;48.488;9.202;2023-05-14T11:07:29;5.80;;;5.30;;
17207;SDS011;8720;48.488;9.202;2023-05-14T11:09:59;6.17;;;5.67;;
17207;SDS011;8720;48.488;9.202;2023-05-14T11:12:30;7.63;;;6.23;;
17207;SDS011;8720;48.488;9.202;2023-05-14T11:14:59;6.30;;;5.80;;
17207;SDS011;8720;48.488;9.202;2023-05-14T11:17:29;6.53;;;5.93;;
17207;SDS011;8720;48.488;9.202;2023-05-14T11:19:57;6.83;;;6.23;;
17207;SDS011;8720;48.488;9.202;2023-05-14T11:22:25;7.23;;;6.63;;
17207;SDS011;8720;48.488;9.202;2023-05-14T11:24:53;6.87;;;6.27;;
17207;SDS011;8720;48.488;9.202;2023-05-14T11:27:20;6.40;;;5.90;;
17207;SDS011;8720;48.488;9.202;2023-05-14T11:29:50;7.13;;;6.47;;
17207;SDS011;8720;48.488;9.202;2023-05-14T11:32:18;7.20;;;6.50;;
17207;SDS011;8720;48.488;9.202;2023-05-14T11:34:48;7.13;;;6.50;;
17207;SDS011;8720;48.488;9.202;2023-05-14T11:37:16;7.17;;;6.47;;
17207;SDS011;8720;48.488;9.202;2023-05-14T11:39:46;7.37;;;6.67;;
17207;SDS011;8720;48.488;9.202;2023-05-14T11:42:16;6.97;;;6.30;;
17207;SDS011;8720;48.488;9.202;2023-05-14T11:44:45;6.07;;;5.47;;
17207;SDS011;8720;48.488;9.202;2023-05-14T11:47:15;7.27;;;6.57;;
17207;SDS011;8720;48.488;9.202;2023-05-14T11:49:45;6.83;;;6.17;;
17207;SDS011;8720;48.488;9.202;2023-05-14T11:52:14;7.10;;;6.50;;
17207;SDS011;8720;48.488;9.202;2023-05-14T11:54:43;6.80;;;6.10;;
17207;SDS011;8720;48.488;9.202;2023-05-14T11:57:11;7.50;;;6.80;;
17207;SDS011;8720;48.488;9.202;2023-05-14T11:59:41;6.37;;;5.77;;
17207;SDS011;8720;48.488;9.202;2023-05-14T12:02:09;6.47;;;5.90;;
17207;SDS011;8720;48.488;9.202;2023-05-14T12:04:39;5.70;;;5.20;;
17207;SDS011;8720;48.488;9.202;2023-05-14T12:07:09;6.63;;;6.03;;
17207;SDS011;8720;48.488;9.202;2023-05-14T12:09:39;6.43;;;5.93;;
17207;SDS011;8720;48.488;9.202;2023-05-14T12:12:13;5.80;;;5.30;;
17207;SDS011;8720;48.488;9.202;2023-05-14T12:14:43;6.00;;;5.40;;
17207;SDS011;8720;48.488;9.202;2023-05-14T12:17:11;5.63;;;5.20;;
17207;SDS011;8720;48.488;9.202;2023-05-14T12:19:42;5.77;;;5.03;;
17207;SDS011;8720;48.488;9.202;2023-05-14T12:22:12;5.80;;;5.17;;
17207;SDS011;8720;48.488;9.202;2023-05-14T12:24:51;5.73;;;5.30;;
17207;SDS011;8720;48.488;9.202;2023-05-14T12:27:20;4.73;;;4.33;;
17207;SDS011;8720;48.488;9.202;2023-05-14T12:29:49;4.80;;;4.40;;
17207;SDS011;8720;48.488;9.202;2023-05-14T12:32:24;5.13;;;4.63;;
17207;SDS011;8720;48.488;9.202;2023-05-14T12:34:53;6.50;;;5.20;;
17207;SDS011;8720;48.488;9.202;2023-05-14T12:37:20;5.90;;;5.40;;
17207;SDS011;8720;48.488;9.202;2023-05-14T12:39:47;6.27;;;5.67;;
17207;SDS011;8720;48.488;9.202;2023-05-14T12:42:15;5.77;;;5.27;;
17207;SDS011;8720;48.488;9.202;2023-05-14T12:44:42;6.77;;;6.17;;
17207;SDS011;8720;48.488;9.202;2023-05-14T12:47:09;6.13;;;5.57;;
17207;SDS011;8720;48.488;9.202;2023-05-14T12:49:36;6.13;;;5.60;;
17207;SDS011;8720;48.488;9.202;2023-05-14T12:52:05;6.50;;;5.50;;
17207;SDS011;8720;48.488;9.202;2023-05-14T12:54:33;6.00;;;5.50;;
17207;SDS011;8720;48.488;9.202;2023-05-14T12:57:00;6.13;;;5.60;;
17207;SDS011;8720;48.488;9.202;2023-05-14T12:59:29;4.77;;;4.37;;
17207;SDS011;8720;48.488;9.202;2023-05-14T13:01:56;5.97;;;5.37;;
17207;SDS011;8720;48.488;9.202;2023-05-14T13:04:24;5.53;;;5.03;;
17207;SDS011;8720;48.488;9.202;2023-05-14T13:06:51;5.73;;;5.23;;
17207;SDS011;8720;48.488;9.202;2023-05-14T13:09:20;5.67;;;5.17;;
17207;SDS011;8720;48.488;9.202;2023-05-14T13:11:47;5.13;;;4.70;;
17207;SDS011;8720;48.488;9.202;2023-05-14T13:14:14;5.20;;;4.80;;
17207;SDS011;8720;48.488;9.202;2023-05-14T13:16:41;5.33;;;4.90;;
17207;SDS011;8720;48.488;9.202;2023-05-14T13:19:09;7.50;;;4.60;;
17207;SDS011;8720;48.488;9.202;2023-05-14T13:21:36;4.97;;;4.57;;
17207;SDS011;8720;48.488;9.202;2023-05-14T13:24:03;4.43;;;4.03;;
17207;SDS011;8720;48.488;9.202;2023-05-14T13:26:33;5.07;;;4.57;;
17207;SDS011;8720;48.488;9.202;2023-05-14T13:29:00;4.57;;;4.20;;
17207;SDS011;8720;48.488;9.202;2023-05-14T13:31:28;4.47;;;4.10;;
17207;SDS011;8720;48.488;9.202;2023-05-14T13:33:55;5.10;;;4.67;;
17207;SDS011;8720;48.488;9.202;2023-05-14T13:36:23;4.80;;;4.40;;
17207;SDS011;8720;48.488;9.202;2023-05-14T13:38:50;4.00;;;3.70;;
17207;SDS011;8720;48.488;9.202;2023-05-14T13:41:18;4.03;;;3.70;;
17207;SDS011;8720;48.488;9.202;2023-05-14T13:43:47;4.53;;;3.93;;
17207;SDS011;8720;48.488;9.202;2023-05-14T13:46:15;4.60;;;4.20;;
17207;SDS011;8720;48.488;9.202;2023-05-14T13:48:42;4.20;;;3.90;;
17207;SDS011;8720;48.488;9.202;2023-05-14T13:51:09;4.40;;;4.10;;
17207;SDS011;8720;48.488;9.202;2023-05-14T13:53:36;3.90;;;3.60;;
17207;SDS011;8720;48.488;9.202;2023-05-14T13:56:04;5.47;;;4.97;;
17207;SDS011;8720;48.488;9.202;2023-05-14T13:58:32;4.70;;;4.30;;
17207;SDS011;8720;48.488;9.202;2023-05-14T14:01:01;4.40;;;4.00;;
17207;SDS011;8720;48.488;9.202;2023-05-14T14:03:28;4.63;;;4.23;;
17207;SDS011;8720;48.488;9.202;2023-05-14T14:05:55;5.20;;;4.70;;
17207;SDS011;8720;48.488;9.202;2023-05-14T14:08:23;4.23;;;3.93;;
17207;SDS011;8720;48.488;9.202;2023-05-14T14:10:50;4.03;;;3.73;;
17207;SDS011;8720;48.488;9.202;2023-05-14T14:13:19;5.40;;;4.90;;
17207;SDS011;8720;48.488;9.202;2023-05-14T14:15:46;4.47;;;4.03;;
17207;SDS011;8720;48.488;9.202;2023-05-14T14:18:15;4.50;;;4.17;;
17207;SDS011;8720;48.488;9.202;2023-05-14T14:20:42;5.17;;;4.77;;
17207;SDS011;8720;48.488;9.202;2023-05-14T14:23:10;5.27;;;4.47;;
17207;SDS011;8720;48.488;9.202;2023-05-14T14:25:37;4.10;;;3.80;;
17207;SDS011;8720;48.488;9.202;2023-05-14T14:28:04;4.47;;;4.17;;
17207;SDS011;8720;48.488;9.202;2023-05-14T14:30:32;5.00;;;4.60;;
17207;SDS011;8720;48.488;9.202;2023-05-14T14:32:59;5.30;;;4.90;;
17207;SDS011;8720;48.488;9.202;2023-05-14T14:35:28;4.83;;;4.43;;
17207;SDS011;8720;48.488;9.202;2023-05-14T14:37:57;4.20;;;3.90;;
17207;SDS011;8720;48.488;9.202;2023-05-14T14:40:24;4.43;;;4.03;;
17207;SDS011;8720;48.488;9.202;2023-05-14T14:42:52;4.73;;;4.30;;
17207;SDS011;8720;48.488;9.202;2023-05-14T14:45:19;4.10;;;3.77;;
17207;SDS011;8720;48.488;9.202;2023-05-14T14:47:47;4.30;;;4.00;;
17207;SDS011;8720;48.488;9.202;2023-05-14T14:50:15;4.37;;;3.97;;
17207;SDS011;8720;48.488;9.202;2023-05-14T14:52:44;3.90;;;3.60;;
17207;SDS011;8720;48.488;9.202;2023-05-14T14:55:12;3.57;;;3.27;;
17207;SDS011;8720;48.488;9.202;2023-05-14T14:57:39;3.43;;;3.13;;